Time;durP1;ratioP1;P1;durP2;ratioP2;P2;SDS_P1;SDS_P2;PMS_P1;PMS_P2;Temp;Humidity;BMP_temperature;BMP_pressure;BME280_temperature;BME280_humidity;BME280_pressure;Samples;Min_cycle;Max_cycle;Signal;HPM_P1;HPM_P2
2021/09/25 00:01:27;;;;;;;28.98;25.90;;;;;;;9.47;100.00;98543.43;1887591;76;21344;-59
2021/09/25 00:03:54;;;;;;;48.23;38.90;;;;;;;9.43;100.00;98541.30;1887395;76;20877;-59
2021/09/25 00:06:20;;;;;;;26.82;19.17;;;;;;;9.41;100.00;98544.78;1887444;75;20853;-59
2021/09/25 00:08:47;;;;;;;45.35;34.25;;;;;;;9.45;100.00;98543.69;1887459;75;21078;-59
2021/09/25 00:11:14;;;;;;;33.80;26.65;;;;;;;9.39;100.00;98540.23;1887323;76;21351;-59
2021/09/25 00:13:40;;;;;;;34.45;23.75;;;;;;;9.41;100.00;98550.14;1887875;76;20830;-59
2021/09/25 00:16:07;;;;;;;16.67;10.98;;;;;;;9.45;100.00;98549.05;1887540;75;20869;-59
2021/09/25 00:18:35;;;;;;;16.05;9.15;;;;;;;9.41;100.00;98556.84;1887306;75;20790;-59
2021/09/25 00:21:03;;;;;;;10.55;9.30;;;;;;;9.37;100.00;98558.44;1887728;76;21858;-59
2021/09/25 00:23:30;;;;;;;14.97;13.50;;;;;;;9.41;100.00;98553.36;1887727;75;20865;-59
2021/09/25 00:25:57;;;;;;;10.25;9.35;;;;;;;9.36;100.00;98557.39;1887290;75;20837;-59
2021/09/25 00:28:23;;;;;;;42.80;38.90;;;;;;;9.39;100.00;98562.99;1887260;75;20885;-58
2021/09/25 00:30:49;;;;;;;525.27;338.45;;;;;;;9.41;100.00;98561.39;1887565;76;20873;-58
2021/09/25 00:33:16;;;;;;;137.03;79.90;;;;;;;9.35;100.00;98558.44;1887759;75;21076;-58
2021/09/25 00:35:42;;;;;;;157.55;92.55;;;;;;;9.35;100.00;98559.78;1887432;75;20909;-58
2021/09/25 00:38:09;;;;;;;101.15;64.77;;;;;;;9.31;100.00;98558.19;1887866;76;20873;-58
2021/09/25 00:40:35;;;;;;;99.83;69.25;;;;;;;9.30;100.00;98563.27;1887343;76;20913;-59
2021/09/25 00:43:02;;;;;;;28.85;17.75;;;;;;;9.30;100.00;98570.50;1887685;76;20838;-59
2021/09/25 00:45:28;;;;;;;19.35;14.47;;;;;;;9.28;100.00;98570.76;1887664;75;21106;-59
2021/09/25 00:47:55;;;;;;;26.50;18.92;;;;;;;9.25;100.00;98569.97;1887477;75;20838;-59
2021/09/25 00:50:21;;;;;;;23.30;18.80;;;;;;;9.23;100.00;98566.75;1887651;76;20868;-59
2021/09/25 00:52:47;;;;;;;18.70;12.28;;;;;;;9.22;100.00;98568.63;1856116;76;20841;-59
2021/09/25 00:55:14;;;;;;;30.88;22.37;;;;;;;9.25;100.00;98566.49;1887546;75;20864;-60
2021/09/25 00:57:40;;;;;;;32.60;21.93;;;;;;;9.29;100.00;98572.92;1856167;76;21846;-59
2021/09/25 01:00:08;;;;;;;15.80;10.65;;;;;;;9.20;100.00;98572.11;1887651;75;20849;-59
2021/09/25 01:02:35;;;;;;;15.95;10.38;;;;;;;9.24;100.00;98577.74;1887575;76;20893;-58
2021/09/25 01:05:02;;;;;;;8.38;7.58;;;;;;;9.19;100.00;98569.17;1887375;76;20890;-59
2021/09/25 01:07:29;;;;;;;12.30;10.98;;;;;;;9.19;100.00;98573.19;1887163;75;21438;-59
2021/09/25 01:09:55;;;;;;;42.20;27.27;;;;;;;9.20;100.00;98570.77;1887562;75;21115;-59
2021/09/25 01:12:22;;;;;;;34.48;11.12;;;;;;;9.15;100.00;98579.34;1855732;76;20920;-58
2021/09/25 01:14:48;;;;;;;16.35;10.30;;;;;;;9.19;100.00;98591.93;1887529;76;21337;-58
2021/09/25 01:17:15;;;;;;;17.32;10.70;;;;;;;9.16;100.00;98588.45;1887134;76;20928;-58
2021/09/25 01:19:42;;;;;;;14.90;12.63;;;;;;;9.18;100.00;98586.83;1887142;76;21403;-58
2021/09/25 01:22:09;;;;;;;11.50;10.35;;;;;;;9.19;100.00;98583.90;1887205;75;21756;-59
2021/09/25 01:24:36;;;;;;;12.75;6.28;;;;;;;9.22;100.00;98588.71;1887976;76;20924;-58
2021/09/25 01:27:03;;;;;;;64.53;36.75;;;;;;;9.21;100.00;98584.95;1887513;76;20885;-58
2021/09/25 01:29:29;;;;;;;70.65;40.43;;;;;;;9.18;100.00;98586.83;1855944;76;21331;-59
2021/09/25 01:31:56;;;;;;;99.10;58.42;;;;;;;9.13;100.00;98587.63;1887560;76;20873;-58
2021/09/25 01:34:23;;;;;;;185.70;102.50;;;;;;;9.15;100.00;98591.39;1887663;76;21061;-58
2021/09/25 01:36:49;;;;;;;71.25;39.42;;;;;;;9.15;100.00;98588.17;1856070;76;20932;-58
2021/09/25 01:39:16;;;;;;;37.35;21.80;;;;;;;9.19;100.00;98597.28;1856202;76;20881;-58
2021/09/25 01:41:42;;;;;;;47.70;40.83;;;;;;;9.16;100.00;98587.62;1887533;76;20806;-58
2021/09/25 01:44:09;;;;;;;102.97;64.30;;;;;;;9.17;100.00;98602.64;1886814;76;21438;-58
2021/09/25 01:46:35;;;;;;;11.78;7.15;;;;;;;9.19;100.00;98604.52;1887314;76;21094;-58
2021/09/25 01:49:02;;;;;;;18.15;11.70;;;;;;;9.14;100.00;98603.98;1887565;76;20864;-58
2021/09/25 01:51:29;;;;;;;15.95;10.15;;;;;;;9.16;100.00;98611.22;1887524;76;20877;-59
2021/09/25 01:53:55;;;;;;;10.40;7.85;;;;;;;9.18;100.00;98619.76;1887799;76;20853;-58
2021/09/25 01:56:21;;;;;;;11.38;9.38;;;;;;;9.21;100.00;98618.42;1887328;75;20867;-58
2021/09/25 01:58:48;;;;;;;8.65;6.85;;;;;;;9.13;100.00;98613.06;1886791;76;21100;-59
2021/09/25 02:01:15;;;;;;;7.25;6.42;;;;;;;9.10;100.00;98620.30;1887225;75;20842;-58
2021/09/25 02:03:41;;;;;;;9.53;6.05;;;;;;;8.98;100.00;98625.10;1887541;76;20856;-58
2021/09/25 02:06:11;;;;;;;4.33;3.92;;;;;;;8.91;100.00;98635.26;1887331;75;20838;-58
2021/09/25 02:08:38;;;;;;;5.85;3.40;;;;;;;8.84;100.00;98645.41;1887870;75;21399;-59
2021/09/25 02:11:06;;;;;;;8.50;4.25;;;;;;;8.72;100.00;98643.80;1887732;75;21419;-58
2021/09/25 02:13:32;;;;;;;7.15;3.80;;;;;;;8.62;100.00;98653.11;1887471;76;21019;-59
2021/09/25 02:15:59;;;;;;;7.25;4.15;;;;;;;8.55;100.00;98653.91;1887242;76;20968;-58
2021/09/25 02:18:26;;;;;;;6.95;3.72;;;;;;;8.49;100.00;98650.94;1887718;76;20869;-59
2021/09/25 02:20:54;;;;;;;7.33;3.57;;;;;;;8.41;100.00;98651.45;1887730;76;20822;-59
2021/09/25 02:23:26;;;;;;;6.78;4.25;;;;;;;8.34;100.00;98648.44;1887744;75;21079;-58
2021/09/25 02:25:52;;;;;;;18.23;6.00;;;;;;;8.33;100.00;98648.72;1887177;75;20853;-59
2021/09/25 02:28:21;;;;;;;10.98;5.08;;;;;;;8.32;100.00;98653.77;1887320;75;20881;-59
2021/09/25 02:30:47;;;;;;;15.15;7.12;;;;;;;8.30;100.00;98658.03;1887700;76;20877;-59
2021/09/25 02:33:17;;;;;;;15.28;8.93;;;;;;;8.32;100.00;98662.59;1887692;76;21316;-59
2021/09/25 02:35:43;;;;;;;29.87;23.85;;;;;;;8.37;100.00;98662.61;1887172;75;21712;-58
2021/09/25 02:38:10;;;;;;;58.95;52.80;;;;;;;8.44;100.00;98665.09;1887399;75;21268;-58
2021/09/25 02:40:37;;;;;;;73.65;45.98;;;;;;;8.49;100.00;98668.31;1887454;76;21038;-58
2021/09/25 02:43:04;;;;;;;256.00;147.30;;;;;;;8.55;100.00;98677.98;1887647;76;20841;-58
2021/09/25 02:45:31;;;;;;;186.70;108.42;;;;;;;8.59;100.00;98686.53;1887322;76;20876;-58
2021/09/25 02:47:57;;;;;;;164.55;81.25;;;;;;;8.57;100.00;98687.86;1887794;76;21803;-58
2021/09/25 02:50:23;;;;;;;410.55;265.98;;;;;;;8.55;100.00;98694.03;1887401;76;20794;-58
2021/09/25 02:52:50;;;;;;;40.28;17.30;;;;;;;8.57;100.00;98699.91;1887872;75;20901;-58
2021/09/25 02:55:16;;;;;;;39.67;23.25;;;;;;;8.52;100.00;98705.23;1887443;76;20909;-58
2021/09/25 02:57:43;;;;;;;416.08;250.72;;;;;;;8.42;100.00;98707.33;1887365;76;21293;-58
2021/09/25 03:00:24;;;;;;;232.77;130.93;;;;;;;8.32;100.00;98707.25;1887509;75;21996;-58
2021/09/25 03:02:51;;;;;;;134.80;94.30;;;;;;;8.25;100.00;98709.34;1887337;76;21316;-58
2021/09/25 03:05:17;;;;;;;79.65;57.45;;;;;;;8.21;100.00;98710.95;1887303;76;20882;-59
2021/09/25 03:07:44;;;;;;;75.08;56.85;;;;;;;8.09;100.00;98705.80;1887326;76;20842;-59
2021/09/25 03:10:13;;;;;;;102.97;70.45;;;;;;;8.01;100.00;98704.41;1887518;76;20865;-58
2021/09/25 03:12:39;;;;;;;44.40;31.48;;;;;;;7.94;100.00;98713.98;1887299;76;21056;-59
2021/09/25 03:15:07;;;;;;;89.00;56.15;;;;;;;7.87;100.00;98716.06;1887291;76;21450;-58
2021/09/25 03:17:34;;;;;;;125.65;78.07;;;;;;;7.82;100.00;98716.03;1887681;76;20872;-59
2021/09/25 03:20:00;;;;;;;72.27;44.23;;;;;;;7.80;100.00;98710.66;1887193;75;20856;-59
2021/09/25 03:22:27;;;;;;;52.53;36.50;;;;;;;7.77;100.00;98718.66;1887460;76;20826;-58
2021/09/25 03:24:53;;;;;;;52.67;36.65;;;;;;;7.79;100.00;98719.22;1887949;75;21061;-59
2021/09/25 03:27:20;;;;;;;24.37;14.40;;;;;;;7.76;100.00;98717.57;1887545;76;20873;-59
2021/09/25 03:29:46;;;;;;;16.30;14.03;;;;;;;7.79;100.00;98726.41;1887620;75;20951;-59
2021/09/25 03:32:12;;;;;;;14.70;9.85;;;;;;;7.80;100.00;98734.17;1887929;76;20842;-59
2021/09/25 03:34:39;;;;;;;14.33;9.43;;;;;;;7.80;100.00;98732.04;1887792;75;20932;-59
2021/09/25 03:37:05;;;;;;;9.30;6.72;;;;;;;7.80;100.00;98730.70;1887442;75;21182;-59
2021/09/25 03:39:32;;;;;;;9.40;4.87;;;;;;;7.81;100.00;98738.44;1887138;75;20921;-59
2021/09/25 03:41:58;;;;;;;10.72;5.45;;;;;;;7.84;100.00;98743.30;1887550;76;20881;-59
2021/09/25 03:44:25;;;;;;;6.45;4.78;;;;;;;7.86;100.00;98739.02;1887292;76;20928;-59
2021/09/25 03:46:51;;;;;;;18.82;6.53;;;;;;;7.87;100.00;98730.75;1887724;75;20806;-59
2021/09/25 03:49:18;;;;;;;12.00;6.75;;;;;;;7.97;100.00;98743.92;1887858;75;21075;-59
2021/09/25 03:51:46;;;;;;;22.52;12.78;;;;;;;8.04;100.00;98743.17;1887291;76;20936;-59
2021/09/25 03:54:12;;;;;;;11.83;8.40;;;;;;;8.15;100.00;98749.65;1887838;76;20810;-59
2021/09/25 03:56:38;;;;;;;215.68;194.95;;;;;;;8.23;100.00;98751.56;1887595;76;20943;-59
2021/09/25 03:59:05;;;;;;;811.43;503.75;;;;;;;8.28;100.00;98754.27;1887334;76;21316;-59
2021/09/25 04:01:31;;;;;;;483.42;297.85;;;;;;;8.37;100.00;98760.21;1887371;75;21133;-59
2021/09/25 04:03:58;;;;;;;280.62;143.20;;;;;;;8.44;100.00;98760.02;1887348;75;21360;-58
2021/09/25 04:06:26;;;;;;;295.50;153.68;;;;;;;8.55;100.00;98772.40;1887818;76;20806;-58
2021/09/25 04:08:54;;;;;;;939.02;559.37;;;;;;;8.55;100.00;98767.59;1887266;76;20876;-58
2021/09/25 04:11:20;;;;;;;260.98;136.72;;;;;;;8.64;100.00;98772.70;1887194;75;20829;-58
2021/09/25 04:13:47;;;;;;;507.40;282.85;;;;;;;8.68;100.00;98788.51;1855688;76;21885;-58
2021/09/25 04:16:14;;;;;;;361.57;188.62;;;;;;;8.78;100.00;98786.42;1887691;75;20830;-58
2021/09/25 04:18:40;;;;;;;402.90;205.52;;;;;;;8.82;100.00;98790.70;1887457;75;20864;-58
2021/09/25 04:21:06;;;;;;;199.25;98.90;;;;;;;8.91;100.00;98798.52;1887705;76;20951;-58
2021/09/25 04:23:34;;;;;;;379.35;192.87;;;;;;;8.96;100.00;98796.66;1883877;75;20957;-59
2021/09/25 04:26:00;;;;;;;223.78;111.10;;;;;;;9.06;100.00;98794.55;1890783;75;21052;-58
2021/09/25 04:28:27;;;;;;;315.48;169.22;;;;;;;9.11;100.00;98796.45;1897242;75;21453;-58
2021/09/25 04:30:53;;;;;;;215.12;108.72;;;;;;;9.15;100.00;98802.89;1895099;75;20927;-58
2021/09/25 04:33:20;;;;;;;101.60;54.20;;;;;;;9.21;100.00;98801.83;1886824;75;21374;-58
2021/09/25 04:35:46;;;;;;;83.37;61.15;;;;;;;9.25;100.00;98796.23;1897548;75;21448;-58
2021/09/25 04:38:13;;;;;;;39.45;29.72;;;;;;;9.29;100.00;98801.88;1897182;75;21367;-59
2021/09/25 04:40:39;;;;;;;16.82;8.48;;;;;;;9.32;100.00;98802.69;1897136;75;20908;-59
2021/09/25 04:43:06;;;;;;;13.03;6.50;;;;;;;9.36;100.00;98806.45;1897370;75;20908;-59
2021/09/25 04:45:32;;;;;;;12.15;6.53;;;;;;;9.39;100.00;98812.62;1897476;75;20939;-59
2021/09/25 04:47:59;;;;;;;11.15;5.75;;;;;;;9.44;100.00;98820.66;1897349;75;20939;-59
2021/09/25 04:50:29;;;;;;;9.88;5.10;;;;;;;9.46;100.00;98818.53;1897197;75;21305;-59
2021/09/25 04:52:53;;;;;;;12.00;5.00;;;;;;;9.51;100.00;98829.80;1897321;75;22694;-59
2021/09/25 04:55:20;;;;;;;9.60;4.40;;;;;;;9.55;100.00;98842.37;1897362;75;20959;-59
2021/09/25 04:57:46;;;;;;;8.35;3.77;;;;;;;9.62;100.00;98850.17;1897074;75;21437;-59
2021/09/25 05:00:14;;;;;;;6.30;3.98;;;;;;;9.68;100.00;98852.31;1897325;75;20837;-59
2021/09/25 05:02:41;;;;;;;11.03;3.90;;;;;;;9.73;100.00;98854.49;1886454;75;21086;-59
2021/09/25 05:05:10;;;;;;;7.35;4.75;;;;;;;9.82;100.00;98857.44;1860906;77;20929;-59
2021/09/25 05:07:36;;;;;;;13.20;6.45;;;;;;;9.91;100.00;98854.51;1861624;76;21376;-59
2021/09/25 05:10:03;;;;;;;12.13;4.78;;;;;;;9.98;100.00;98865.78;1862242;77;20850;-59
2021/09/25 05:12:30;;;;;;;29.02;10.20;;;;;;;10.05;100.00;98870.34;1831226;77;20977;-59
2021/09/25 05:14:56;;;;;;;18.70;9.95;;;;;;;10.16;100.00;98869.81;1861966;77;21105;-59
2021/09/25 05:17:23;;;;;;;226.92;204.68;;;;;;;10.23;100.00;98870.89;1861384;77;20869;-59
2021/09/25 05:19:49;;;;;;;557.92;507.05;;;;;;;10.34;100.00;98873.06;1862086;77;20830;-59
2021/09/25 05:22:18;;;;;;;370.33;211.87;;;;;;;10.45;100.00;98875.48;1862154;77;20964;-59
2021/09/25 05:24:45;;;;;;;315.90;168.40;;;;;;;10.61;100.00;98872.80;1862070;76;20916;-59
2021/09/25 05:27:12;;;;;;;114.82;55.52;;;;;;;10.69;100.00;98881.64;1862076;76;21107;-59
2021/09/25 05:29:39;;;;;;;440.58;227.80;;;;;;;10.79;100.00;98886.19;1862060;77;20932;-59
2021/09/25 05:32:07;;;;;;;731.67;419.58;;;;;;;10.86;100.00;98900.13;1862100;76;20921;-59
2021/09/25 05:34:34;;;;;;;611.73;347.65;;;;;;;10.90;100.00;98899.33;1862068;77;20890;-58
2021/09/25 05:37:01;;;;;;;204.47;102.07;;;;;;;10.84;100.00;98901.73;1862106;77;20842;-58
2021/09/25 05:39:27;;;;;;;207.15;102.42;;;;;;;10.85;100.00;98911.93;1862161;76;21096;-58
2021/09/25 05:41:54;;;;;;;250.65;125.80;;;;;;;10.93;100.00;98916.23;1861860;76;20892;-58
2021/09/25 05:44:20;;;;;;;105.67;53.92;;;;;;;10.90;100.00;98915.95;1861334;77;21505;-58
2021/09/25 05:46:47;;;;;;;88.42;46.75;;;;;;;10.84;100.00;98921.88;1861731;77;20917;-58
2021/09/25 05:49:13;;;;;;;31.73;17.85;;;;;;;10.84;100.00;98921.88;1862392;77;20952;-58
2021/09/25 05:51:40;;;;;;;58.33;38.05;;;;;;;10.86;100.00;98928.33;1862045;77;21032;-58
2021/09/25 05:54:07;;;;;;;91.12;36.38;;;;;;;10.82;100.00;98934.75;1880127;75;20877;-58
2021/09/25 05:56:34;;;;;;;138.70;51.55;;;;;;;10.80;100.00;98932.88;1894557;75;20895;-59
2021/09/25 05:59:01;;;;;;;95.60;38.13;;;;;;;10.78;100.00;98931.02;1892728;75;20894;-59
2021/09/25 06:01:27;;;;;;;43.17;26.57;;;;;;;10.77;100.00;98936.11;1883240;76;20881;-58
2021/09/25 06:03:54;;;;;;;41.98;24.20;;;;;;;10.73;100.00;98947.94;1893485;75;23227;-58
2021/09/25 06:06:20;;;;;;;27.50;16.00;;;;;;;10.76;100.00;98953.30;1866723;75;20947;-59
2021/09/25 06:08:46;;;;;;;26.17;16.55;;;;;;;10.74;100.00;98954.10;1879501;76;20908;-59
2021/09/25 06:11:13;;;;;;;19.15;13.83;;;;;;;10.84;100.00;98948.72;1879325;76;22183;-59
2021/09/25 06:13:39;;;;;;;20.97;15.00;;;;;;;10.92;100.00;98956.77;1883543;75;20994;-59
2021/09/25 06:16:06;;;;;;;19.35;7.05;;;;;;;11.02;100.00;98952.72;1889851;75;21094;-59
2021/09/25 06:18:32;;;;;;;19.15;9.18;;;;;;;11.11;100.00;98950.30;1888042;76;20845;-60
2021/09/25 06:20:59;;;;;;;10.23;4.87;;;;;;;11.29;100.00;98954.27;1880129;75;21460;-60
2021/09/25 06:23:25;;;;;;;10.98;4.62;;;;;;;11.43;100.00;98967.95;1838543;76;20972;-59
2021/09/25 06:25:51;;;;;;;17.40;4.95;;;;;;;11.62;100.00;98966.27;1859976;75;21395;-60
2021/09/25 06:28:18;;;;;;;10.28;4.05;;;;;;;12.22;100.00;98959.02;1840278;77;21038;-59
2021/09/25 06:30:46;;;;;;;11.38;5.72;;;;;;;12.74;100.00;98968.04;1881111;75;20825;-60
2021/09/25 06:33:13;;;;;;;9.55;4.22;;;;;;;13.03;100.00;98967.53;1891211;75;20833;-60
2021/09/25 06:35:39;;;;;;;42.08;13.05;;;;;;;12.88;100.00;98971.70;1884454;75;20873;-60
2021/09/25 06:38:06;;;;;;;37.60;14.10;;;;;;;12.77;100.00;98975.58;1866928;75;20951;-60
2021/09/25 06:40:33;;;;;;;44.20;38.95;;;;;;;12.50;100.00;98980.89;1879064;75;21109;-60
2021/09/25 06:42:59;;;;;;;14.25;4.83;;;;;;;12.54;100.00;98978.43;1893426;75;21228;-60
2021/09/25 06:45:32;;;;;;;45.10;32.08;;;;;;;12.54;100.00;98975.22;1893562;75;20966;-60
2021/09/25 06:47:54;;;;;;;34.10;22.75;;;;;;;12.52;100.00;98987.32;1890907;75;21004;-60
2021/09/25 06:50:22;;;;;;;69.07;49.70;;;;;;;12.72;100.00;98982.36;1887794;75;20889;-60
2021/09/25 06:52:48;;;;;;;28.40;19.95;;;;;;;13.00;100.00;98994.22;1877949;75;21131;-60
2021/09/25 06:55:15;;;;;;;28.87;18.75;;;;;;;13.17;100.00;98989.20;1878614;75;20921;-62
2021/09/25 06:57:42;;;;;;;18.20;13.48;;;;;;;13.21;100.00;98994.84;1886716;75;21014;-61
2021/09/25 07:00:10;;;;;;;14.20;7.55;;;;;;;13.19;100.00;99003.20;1896004;75;20984;-61
2021/09/25 07:02:39;;;;;;;20.72;10.10;;;;;;;13.17;100.00;98993.80;1895394;75;20932;-61
2021/09/25 07:05:09;;;;;;;15.85;9.25;;;;;;;13.02;100.00;99015.75;1874054;75;21112;-62
2021/09/25 07:07:35;;;;;;;15.53;8.95;;;;;;;13.39;100.00;99015.70;1864712;75;20970;-61
2021/09/25 07:10:04;;;;;;;13.75;6.42;;;;;;;13.55;100.00;99019.06;1861460;76;20916;-62
2021/09/25 07:12:31;;;;;;;10.58;3.33;;;;;;;13.75;100.00;99007.79;1861520;76;21443;-62
2021/09/25 07:14:57;;;;;;;11.15;4.17;;;;;;;13.79;100.00;99020.94;1861631;75;20854;-61
2021/09/25 07:17:24;;;;;;;4.33;2.33;;;;;;;13.89;100.00;99031.08;1892218;75;21080;-61
2021/09/25 07:19:51;;;;;;;7.80;3.08;;;;;;;13.41;100.00;99024.31;1894921;75;20872;-61
2021/09/25 07:22:18;;;;;;;20.40;5.17;;;;;;;13.36;100.00;99023.57;1889810;75;20876;-63
2021/09/25 07:24:44;;;;;;;44.08;20.55;;;;;;;13.41;100.00;99026.22;1888018;75;20845;-61
2021/09/25 07:27:11;;;;;;;53.87;21.90;;;;;;;13.19;100.00;99020.72;1879600;75;20970;-62
2021/09/25 07:29:43;;;;;;;297.50;273.55;;;;;;;13.14;100.00;99022.12;1885839;75;21085;-62
2021/09/25 07:32:09;;;;;;;77.53;62.20;;;;;;;12.93;100.00;99036.30;1891250;75;21033;-61
2021/09/25 07:34:36;;;;;;;65.60;35.95;;;;;;;12.85;100.00;99030.97;1891905;75;21350;-62
2021/09/25 07:37:02;;;;;;;19.00;6.78;;;;;;;12.71;100.00;99039.42;1892735;75;20864;-62
2021/09/25 07:39:30;;;;;;;169.77;119.93;;;;;;;12.72;100.00;99046.98;1896688;75;20892;-61
2021/09/25 07:41:56;;;;;;;128.25;91.97;;;;;;;12.75;100.00;99043.72;1897158;75;21139;-62
2021/09/25 07:44:22;;;;;;;64.12;40.38;;;;;;;12.73;100.00;99052.06;1860928;75;20927;-62
2021/09/25 07:46:49;;;;;;;33.92;25.20;;;;;;;12.63;100.00;99046.75;1884848;75;20995;-61
2021/09/25 07:49:15;;;;;;;64.77;42.27;;;;;;;12.62;100.00;99048.65;1881025;75;20980;-61
2021/09/25 07:51:42;;;;;;;65.90;38.80;;;;;;;12.50;100.00;99059.50;1894082;75;20797;-61
2021/09/25 07:54:08;;;;;;;75.30;51.68;;;;;;;12.43;100.00;99058.45;1896698;75;21107;-61
2021/09/25 07:56:35;;;;;;;67.35;50.20;;;;;;;12.63;100.00;99065.59;1893235;75;20912;-62
2021/09/25 07:59:01;;;;;;;46.90;29.63;;;;;;;12.79;100.00;99068.47;1886470;75;20967;-61
2021/09/25 08:01:28;;;;;;;21.23;14.18;;;;;;;12.84;100.00;99073.02;1896528;75;20848;-60
2021/09/25 08:03:54;;;;;;;21.60;17.62;;;;;;;12.75;100.00;99079.52;1895673;75;20947;-61
2021/09/25 08:06:20;;;;;;;12.35;7.50;;;;;;;12.77;100.00;99079.25;1882571;75;21000;-61
2021/09/25 08:08:47;;;;;;;29.82;22.58;;;;;;;12.81;100.00;99082.45;1895996;75;21465;-61
2021/09/25 08:11:13;;;;;;;16.42;7.00;;;;;;;12.77;100.00;99084.64;1887994;75;20868;-61
2021/09/25 08:13:40;;;;;;;22.60;9.50;;;;;;;12.79;100.00;99079.78;1882949;75;20932;-61
2021/09/25 08:16:06;;;;;;;10.90;3.40;;;;;;;12.78;100.00;99080.85;1862320;77;20903;-61
2021/09/25 08:18:33;;;;;;;10.28;5.05;;;;;;;12.55;100.00;99076.42;1877040;75;21074;-61
2021/09/25 08:20:59;;;;;;;19.70;7.65;;;;;;;12.70;100.00;99083.59;1883457;75;21496;-60
2021/09/25 08:23:26;;;;;;;14.53;5.78;;;;;;;12.68;100.00;99079.58;1897358;75;21316;-61
2021/09/25 08:25:53;;;;;;;13.10;4.62;;;;;;;12.66;100.00;99082.53;1890156;75;20884;-60
2021/09/25 08:28:20;;;;;;;13.10;4.33;;;;;;;12.81;100.00;99093.23;1897664;75;20881;-60
2021/09/25 08:30:47;;;;;;;12.85;4.08;;;;;;;12.80;100.00;99092.16;1897288;75;20980;-60
2021/09/25 08:33:13;;;;;;;16.75;4.42;;;;;;;12.80;100.00;99088.91;1895315;75;20864;-61
2021/09/25 08:35:39;;;;;;;13.30;4.90;;;;;;;13.02;100.00;99091.19;1880784;75;20880;-60
2021/09/25 08:38:06;;;;;;;27.90;11.95;;;;;;;13.20;100.00;99088.89;1887513;76;21525;-60
2021/09/25 08:40:32;;;;;;;11.38;4.03;;;;;;;13.29;100.00;99085.89;1888325;76;20959;-60
2021/09/25 08:42:59;;;;;;;36.40;30.65;;;;;;;13.11;100.00;99086.56;1888018;76;21118;-60
2021/09/25 08:45:26;;;;;;;54.15;48.38;;;;;;;12.92;100.00;99087.77;1888244;76;20979;-61
2021/09/25 08:47:54;;;;;;;81.85;43.95;;;;;;;12.99;100.00;99095.80;1888185;75;20893;-60
2021/09/25 08:50:21;;;;;;;13.43;4.08;;;;;;;12.92;100.00;99087.22;1888458;76;20853;-60
2021/09/25 08:52:47;;;;;;;17.85;5.40;;;;;;;12.93;100.00;99083.98;1888192;76;20924;-60
2021/09/25 08:55:14;;;;;;;170.17;109.32;;;;;;;13.05;100.00;99087.92;1888474;76;21076;-60
2021/09/25 08:57:40;;;;;;;25.95;12.68;;;;;;;13.05;100.00;99096.00;1887207;75;21415;-61
2021/09/25 09:00:36;;;;;;;31.73;17.15;;;;;;;13.00;100.00;99100.63;1876958;75;20916;-61
2021/09/25 09:03:28;;;;;;;11.85;4.25;;;;;;;13.03;100.00;99105.45;1878369;75;21384;-61
2021/09/25 09:06:24;;;;;;;20.32;10.28;;;;;;;12.84;100.00;99098.05;1877364;75;20940;-61
2021/09/25 09:08:53;;;;;;;69.25;36.45;;;;;;;12.74;100.00;99099.98;1890405;75;21114;-61
2021/09/25 09:11:21;;;;;;;18.15;6.47;;;;;;;12.76;100.00;99101.31;1883184;75;21403;-61
2021/09/25 09:13:51;;;;;;;11.25;5.37;;;;;;;12.94;100.00;99105.27;1879671;75;20930;-62
2021/09/25 09:16:18;;;;;;;13.83;6.90;;;;;;;13.07;100.00;99100.58;1889938;75;20872;-60
2021/09/25 09:18:47;;;;;;;14.10;6.40;;;;;;;13.10;100.00;99096.51;1888730;75;20994;-61
2021/09/25 09:21:20;;;;;;;14.15;5.03;;;;;;;13.25;100.00;99102.31;1879628;75;21657;-61
2021/09/25 09:23:58;;;;;;;12.40;4.55;;;;;;;13.14;100.00;99096.77;1885451;75;20975;-61
2021/09/25 09:26:31;;;;;;;11.45;3.98;;;;;;;13.10;100.00;99099.20;1864472;75;21007;-61
2021/09/25 09:28:59;;;;;;;14.38;4.75;;;;;;;13.00;100.00;99104.13;1893009;75;20944;-60
2021/09/25 09:31:26;;;;;;;;;;;;;;;12.83;100.00;99091.04;1892820;75;21238;-61
2021/09/25 09:33:58;;;;;;;9.68;4.12;;;;;;;12.84;100.00;99086.48;1884074;75;21693;-60
2021/09/25 09:36:39;;;;;;;13.05;5.25;;;;;;;12.81;100.00;99081.11;1884665;76;20904;-61
2021/09/25 09:39:15;;;;;;;16.55;5.22;;;;;;;13.10;100.00;99081.69;1882658;75;20938;-61
2021/09/25 09:41:52;;;;;;;9.55;4.75;;;;;;;13.03;100.00;99073.13;1833450;77;20923;-61
2021/09/25 09:44:25;;;;;;;11.93;4.50;;;;;;;13.17;100.00;99074.64;1859869;75;21478;-61
2021/09/25 09:46:54;;;;;;;10.40;5.15;;;;;;;13.23;100.00;99075.67;1888324;75;21099;-61
2021/09/25 09:49:34;;;;;;;13.93;5.37;;;;;;;13.35;100.00;99071.30;1886550;75;21438;-61
2021/09/25 09:52:10;;;;;;;17.23;4.90;;;;;;;13.71;100.00;99074.97;1884916;76;20904;-61
2021/09/25 09:54:42;;;;;;;15.38;4.53;;;;;;;13.75;100.00;99084.11;1884690;76;21103;-60
2021/09/25 09:57:18;;;;;;;15.50;5.15;;;;;;;13.63;100.00;99071.00;1884845;76;20876;-59
2021/09/25 09:59:48;;;;;;;12.98;4.03;;;;;;;13.78;100.00;99076.78;1884840;75;21113;-58
2021/09/25 10:02:16;;;;;;;10.03;3.27;;;;;;;13.71;100.00;99079.02;1884673;75;20857;-60
2021/09/25 10:04:42;;;;;;;12.00;4.78;;;;;;;13.73;100.00;99078.98;1882948;75;20919;-61
2021/09/25 10:07:09;;;;;;;11.88;4.08;;;;;;;13.78;100.00;99093.52;1879026;75;20964;-59
2021/09/25 10:09:37;;;;;;;14.38;4.37;;;;;;;13.64;100.00;99090.12;1884025;75;20961;-59
2021/09/25 10:12:07;;;;;;;18.17;6.12;;;;;;;13.62;100.00;99094.20;1881609;75;21111;-60
2021/09/25 10:14:36;;;;;;;15.32;6.05;;;;;;;13.47;100.00;99096.50;1882231;75;20888;-59
2021/09/25 10:17:07;;;;;;;15.03;5.45;;;;;;;13.46;100.00;99086.27;1884818;75;20876;-59
2021/09/25 10:19:37;;;;;;;16.37;6.62;;;;;;;13.66;100.00;99087.16;1875158;75;20928;-60
2021/09/25 10:22:14;;;;;;;63.02;46.77;;;;;;;13.71;100.00;99083.86;1880412;75;21442;-60
2021/09/25 10:24:56;;;;;;;36.33;20.00;;;;;;;13.88;100.00;99078.02;1879282;75;21434;-59
2021/09/25 10:27:35;;;;;;;20.88;6.08;;;;;;;13.78;100.00;99070.59;1893176;75;20927;-59
2021/09/25 10:30:04;;;;;;;52.20;32.33;;;;;;;13.92;100.00;99064.77;1883622;75;20865;-60
2021/09/25 10:32:51;;;;;;;30.55;15.45;;;;;;;14.80;100.00;99072.02;1883970;75;20993;-60
2021/09/25 10:35:24;;;;;;;16.23;6.05;;;;;;;15.00;100.00;99070.34;1878963;76;20972;-60
2021/09/25 10:37:57;;;;;;;13.03;5.15;;;;;;;14.83;100.00;99074.67;1885955;75;21026;-60
2021/09/25 10:40:34;;;;;;;11.08;4.45;;;;;;;14.74;100.00;99067.21;1884715;75;21418;-61
2021/09/25 10:43:28;;;;;;;12.75;5.08;;;;;;;15.06;100.00;99069.70;1861687;75;20865;-60
2021/09/25 10:45:59;;;;;;;11.68;5.25;;;;;;;15.57;100.00;99073.44;1848365;77;20889;-59
2021/09/25 10:48:28;;;;;;;12.45;6.20;;;;;;;15.62;100.00;99064.67;1842767;77;21467;-58
2021/09/25 10:50:58;;;;;;;12.37;5.50;;;;;;;15.40;100.00;99068.59;1848430;77;21078;-58
2021/09/25 10:53:32;;;;;;;9.30;3.15;;;;;;;15.07;100.00;99063.21;1848278;77;21329;-59
2021/09/25 10:56:03;;;;;;;12.58;5.08;;;;;;;14.93;100.00;99053.69;1848053;77;21443;-59
2021/09/25 10:58:37;;;;;;;10.50;3.55;;;;;;;15.25;100.00;99058.05;1865811;75;21098;-60
2021/09/25 11:01:13;;;;;;;12.20;4.12;;;;;;;15.32;100.00;99055.77;1863387;75;20824;-59
2021/09/25 11:03:47;;;;;;;12.93;4.28;;;;;;;15.52;100.00;99057.30;1858212;77;21053;-59
2021/09/25 11:06:33;;;;;;;13.55;4.67;;;;;;;15.56;100.00;99067.80;1860038;76;20848;-59
2021/09/25 11:09:06;;;;;;;12.55;4.50;;;;;;;15.33;100.00;99049.25;1846628;77;21414;-59
2021/09/25 11:11:49;;;;;;;10.43;4.15;;;;;;;15.31;100.00;99060.38;1855409;77;20906;-60
2021/09/25 11:14:26;;;;;;;19.75;4.78;;;;;;;15.49;100.00;99059.27;1855118;77;21308;-59
2021/09/25 11:16:59;;;;;;;12.75;5.60;;;;;;;15.38;100.00;99054.02;1863196;75;21084;-59
2021/09/25 11:19:30;;;;;;;10.65;4.25;;;;;;;15.60;100.00;99055.25;1893505;75;20959;-59